Time;durP1;ratioP1;P1;durP2;ratioP2;P2;SDS_P1;SDS_P2;PMS_P1;PMS_P2;Temp;Humidity;BMP_temperature;BMP_pressure;BME280_temperature;BME280_humidity;BME280_pressure;Samples;Min_cycle;Max_cycle;Signal;HPM_P1;HPM_P2
2022/05/07 00:01:56;;;;;;;8.65;7.75;;;11.80;89.90;;;;;;5111645;28;20066;-73
2022/05/07 00:04:24;;;;;;;9.25;8.20;;;11.80;89.80;;;;;;5112483;28;20065;-73
2022/05/07 00:06:52;;;;;;;8.85;8.00;;;11.80;89.70;;;;;;5112966;28;20048;-73
2022/05/07 00:09:20;;;;;;;9.93;8.70;;;11.80;89.70;;;;;;5110512;28;20054;-73
2022/05/07 00:11:48;;;;;;;8.65;7.85;;;11.80;89.70;;;;;;5089826;28;20057;-73
2022/05/07 00:14:15;;;;;;;9.73;8.68;;;11.80;89.70;;;;;;5089496;28;20048;-73
2022/05/07 00:19:30;;;;;;;10.70;9.70;;;11.70;89.50;;;;;;5070856;28;20079;-73
2022/05/07 00:21:57;;;;;;;11.35;9.82;;;11.80;89.50;;;;;;5053936;28;20077;-73
2022/05/07 00:24:25;;;;;;;11.48;10.27;;;11.70;89.40;;;;;;5070300;28;20051;-73
2022/05/07 00:26:53;;;;;;;11.85;10.52;;;11.70;89.40;;;;;;5071119;28;20486;-73
2022/05/07 00:29:20;;;;;;;12.68;9.32;;;11.60;89.40;;;;;;5070472;28;20052;-73
2022/05/07 00:31:48;;;;;;;12.20;10.82;;;11.70;89.40;;;;;;5071596;28;20048;-73
2022/05/07 00:34:16;;;;;;;13.35;11.27;;;11.60;89.40;;;;;;5072174;28;20055;-73
2022/05/07 00:36:43;;;;;;;13.60;11.38;;;11.60;89.40;;;;;;5071181;28;20512;-73
2022/05/07 00:39:11;;;;;;;11.60;10.40;;;11.50;89.40;;;;;;5052871;28;20052;-73
2022/05/07 00:41:40;;;;;;;11.85;10.57;;;11.50;89.40;;;;;;5071442;28;20504;-73
2022/05/07 00:44:07;;;;;;;13.05;11.45;;;11.50;89.40;;;;;;5036727;28;20055;-73
2022/05/07 00:46:36;;;;;;;12.90;10.40;;;11.40;89.40;;;;;;5071677;28;20061;-73
2022/05/07 00:49:04;;;;;;;12.52;11.00;;;11.40;89.50;;;;;;5071389;28;20540;-73
2022/05/07 00:51:34;;;;;;;12.50;11.20;;;11.40;89.50;;;;;;5053662;28;20059;-73
2022/05/07 00:54:04;;;;;;;13.63;11.43;;;11.30;89.50;;;;;;5053451;28;20040;-73
2022/05/07 00:56:33;;;;;;;14.07;12.05;;;11.30;89.50;;;;;;5053350;28;20060;-73
2022/05/07 00:59:01;;;;;;;15.30;12.90;;;11.30;89.50;;;;;;5053355;28;20044;-73
2022/05/07 01:01:29;;;;;;;14.40;12.02;;;11.30;89.60;;;;;;5036893;28;20508;-73
2022/05/07 01:03:58;;;;;;;17.25;12.32;;;11.30;89.60;;;;;;5053624;28;20045;-73
2022/05/07 01:06:30;;;;;;;18.95;12.35;;;11.30;89.60;;;;;;5053303;28;20045;-73
2022/05/07 01:08:59;;;;;;;17.83;12.18;;;11.30;89.60;;;;;;5070960;28;20051;-73
2022/05/07 01:11:29;;;;;;;17.95;12.52;;;11.30;89.60;;;;;;5053512;28;20048;-73
2022/05/07 01:13:59;;;;;;;12.20;10.40;;;11.30;89.50;;;;;;5053510;28;20044;-73
2022/05/07 01:16:30;;;;;;;9.30;8.30;;;11.30;89.50;;;;;;5053152;28;20057;-72
2022/05/07 01:18:58;;;;;;;10.38;9.10;;;11.30;89.50;;;;;;5053905;28;20051;-74
2022/05/07 01:21:27;;;;;;;10.23;8.98;;;11.20;89.40;;;;;;5053219;28;20053;-73
2022/05/07 01:23:56;;;;;;;13.98;9.27;;;11.20;89.40;;;;;;5070880;28;20045;-73
2022/05/07 01:26:28;;;;;;;16.93;9.70;;;11.10;89.30;;;;;;5053584;28;20052;-74
2022/05/07 01:29:03;;;;;;;12.65;10.80;;;11.10;89.30;;;;;;5053627;28;20049;-73
2022/05/07 01:31:34;;;;;;;13.07;11.07;;;11.00;89.40;;;;;;5057004;28;20044;-73
2022/05/07 01:34:02;;;;;;;13.55;11.15;;;11.00;89.40;;;;;;5054536;28;20482;-73
2022/05/07 01:36:33;;;;;;;14.95;11.57;;;11.00;89.40;;;;;;5055099;28;20048;-74
2022/05/07 01:39:05;;;;;;;12.57;11.27;;;11.00;89.40;;;;;;5038682;28;20417;-73
2022/05/07 01:41:32;;;;;;;14.38;11.18;;;11.00;89.30;;;;;;5054305;28;20497;-73
2022/05/07 01:44:01;;;;;;;16.27;12.25;;;11.00;89.40;;;;;;5038547;28;20060;-74
2022/05/07 01:49:18;;;;;;;13.65;11.93;;;10.90;89.30;;;;;;5055029;28;20509;-73
2022/05/07 01:51:46;;;;;;;15.43;11.07;;;11.00;89.40;;;;;;5058496;28;20051;-73
2022/05/07 01:54:14;;;;;;;16.38;11.88;;;10.90;89.30;;;;;;5042143;28;20045;-73
2022/05/07 01:56:41;;;;;;;15.57;12.20;;;10.90;89.30;;;;;;5074624;28;20041;-73
2022/05/07 01:59:09;;;;;;;16.63;11.68;;;10.90;89.30;;;;;;5039503;28;20049;-73
2022/05/07 02:01:36;;;;;;;15.15;11.73;;;10.90;89.30;;;;;;5040107;28;20528;-73
2022/05/07 02:04:04;;;;;;;16.35;12.20;;;10.90;89.30;;;;;;5056184;28;20045;-73
2022/05/07 02:06:32;;;;;;;18.30;13.45;;;10.90;89.30;;;;;;5074239;28;20041;-73
2022/05/07 02:09:01;;;;;;;21.50;14.52;;;11.00;89.30;;;;;;5056381;28;20043;-73
2022/05/07 02:11:32;;;;;;;22.20;14.50;;;10.90;89.20;;;;;;5056469;28;20438;-72
2022/05/07 02:14:00;;;;;;;19.83;14.18;;;10.90;89.20;;;;;;5050993;28;20049;-73
2022/05/07 02:16:28;;;;;;;22.40;13.77;;;10.90;89.20;;;;;;5036359;28;20074;-72
2022/05/07 02:18:56;;;;;;;19.50;14.07;;;10.80;89.20;;;;;;5054662;28;20328;-73
2022/05/07 02:21:23;;;;;;;22.77;13.98;;;10.80;89.20;;;;;;5054159;28;20052;-73
2022/05/07 02:23:51;;;;;;;22.17;14.13;;;10.80;89.20;;;;;;5054285;28;20056;-73
2022/05/07 02:26:18;;;;;;;20.83;13.23;;;10.70;89.30;;;;;;5019914;28;20052;-73
2022/05/07 02:28:47;;;;;;;20.40;13.63;;;10.70;89.30;;;;;;5052931;28;20059;-73
2022/05/07 02:31:15;;;;;;;25.25;14.13;;;10.70;89.30;;;;;;5036407;28;20118;-73
2022/05/07 02:33:43;;;;;;;20.27;13.65;;;10.70;89.40;;;;;;5036475;28;20049;-72
2022/05/07 02:36:14;;;;;;;18.95;13.95;;;10.70;89.30;;;;;;5052011;28;20041;-73
2022/05/07 02:38:42;;;;;;;24.98;15.77;;;10.60;89.30;;;;;;5054472;28;20049;-73
2022/05/07 02:43:59;;;;;;;30.60;17.90;;;10.50;89.20;;;;;;5019343;28;20048;-73
2022/05/07 02:46:27;;;;;;;30.75;18.92;;;10.30;89.20;;;;;;5036149;28;20045;-73
2022/05/07 02:48:55;;;;;;;34.75;17.65;;;10.20;89.30;;;;;;5052338;28;20053;-72
2022/05/07 02:51:23;;;;;;;30.10;18.20;;;10.10;89.50;;;;;;5052272;28;20053;-73
2022/05/07 02:53:53;;;;;;;33.22;19.08;;;10.00;89.60;;;;;;5035563;28;20052;-73
2022/05/07 02:56:21;;;;;;;32.10;18.45;;;10.00;89.90;;;;;;5053200;28;20486;-73
2022/05/07 02:58:49;;;;;;;31.70;18.50;;;10.00;90.00;;;;;;5035776;28;20052;-73
2022/05/07 03:01:17;;;;;;;30.23;18.17;;;10.00;90.10;;;;;;5035840;28;20049;-73
2022/05/07 03:03:45;;;;;;;30.25;17.98;;;10.10;90.10;;;;;;5035704;28;20049;-73
2022/05/07 03:06:13;;;;;;;32.70;19.25;;;10.10;90.00;;;;;;5034648;28;20056;-73
2022/05/07 03:08:41;;;;;;;29.27;18.02;;;10.20;90.00;;;;;;5051999;28;20490;-74
2022/05/07 03:11:08;;;;;;;28.92;17.77;;;10.20;90.00;;;;;;5019016;28;20060;-73
2022/05/07 03:13:36;;;;;;;32.03;18.75;;;10.20;90.00;;;;;;5053485;28;20044;-73
2022/05/07 03:16:06;;;;;;;36.25;18.92;;;10.30;90.00;;;;;;5034556;28;20057;-73
2022/05/07 03:18:37;;;;;;;38.80;21.23;;;10.30;89.90;;;;;;5065993;28;20409;-73
2022/05/07 03:21:05;;;;;;;35.80;20.17;;;10.30;89.90;;;;;;5070187;28;20051;-73
2022/05/07 03:23:32;;;;;;;32.42;18.77;;;10.40;89.80;;;;;;5070876;28;20394;-73
2022/05/07 03:26:06;;;;;;;27.27;16.77;;;10.30;89.80;;;;;;5069498;28;20055;-73
2022/05/07 03:28:34;;;;;;;24.00;15.35;;;10.30;89.70;;;;;;5069842;28;20040;-73
2022/05/07 03:31:02;;;;;;;25.45;16.05;;;10.30;89.70;;;;;;5069253;28;20456;-73
2022/05/07 03:33:30;;;;;;;27.17;16.85;;;10.30;89.60;;;;;;5072685;28;20470;-73
2022/05/07 03:35:59;;;;;;;28.08;16.80;;;10.30;89.60;;;;;;5073106;28;20048;-73
2022/05/07 03:38:26;;;;;;;29.90;17.17;;;10.30;89.60;;;;;;5071653;28;20044;-73
2022/05/07 03:41:03;;;;;;;29.30;17.33;;;10.30;89.60;;;;;;5088380;28;20048;-73
2022/05/07 03:43:37;;;;;;;29.25;17.60;;;10.30;89.60;;;;;;5071430;28;20051;-73
2022/05/07 03:46:06;;;;;;;30.33;17.83;;;10.30;89.60;;;;;;5054337;28;20053;-73
2022/05/07 03:48:35;;;;;;;24.88;17.00;;;10.30;89.60;;;;;;5054678;28;20505;-73
2022/05/07 03:51:04;;;;;;;26.98;17.65;;;10.30;89.60;;;;;;5071269;28;20052;-73
2022/05/07 03:53:32;;;;;;;28.63;16.25;;;10.30;89.60;;;;;;5071510;28;20171;-73
2022/05/07 03:56:14;;;;;;;31.83;17.60;;;10.30;89.60;;;;;;5077258;28;20053;-73
2022/05/07 03:58:42;;;;;;;31.85;18.58;;;10.30;89.60;;;;;;5091877;28;20048;-73
2022/05/07 04:01:16;;;;;;;31.08;18.40;;;10.30;89.60;;;;;;5091313;28;20040;-73
2022/05/07 04:03:44;;;;;;;32.20;18.92;;;10.30;89.60;;;;;;5092107;28;20067;-73
2022/05/07 04:06:13;;;;;;;34.03;18.38;;;10.30;89.60;;;;;;5089322;28;20154;-73
2022/05/07 04:08:42;;;;;;;35.42;19.25;;;10.20;89.60;;;;;;5091090;28;20429;-73
2022/05/07 04:11:12;;;;;;;35.10;19.58;;;10.20;89.60;;;;;;5091320;28;20055;-73
2022/05/07 04:13:39;;;;;;;45.08;20.92;;;10.20;89.60;;;;;;5091078;28;20044;-73
2022/05/07 04:16:07;;;;;;;34.35;19.15;;;10.20;89.70;;;;;;5091003;28;20048;-73
2022/05/07 04:18:45;;;;;;;38.10;18.98;;;10.10;89.70;;;;;;5076209;28;20152;-73
2022/05/07 04:21:16;;;;;;;35.00;19.23;;;10.10;89.70;;;;;;5091161;28;20051;-73
2022/05/07 04:23:44;;;;;;;35.63;19.13;;;10.10;89.70;;;;;;5091050;28;20051;-72
2022/05/07 04:26:12;;;;;;;30.83;18.90;;;10.00;89.80;;;;;;5091188;28;20059;-73
2022/05/07 04:28:45;;;;;;;24.37;16.07;;;10.00;89.80;;;;;;5091462;28;20040;-73
2022/05/07 04:31:16;;;;;;;25.30;16.17;;;9.90;89.80;;;;;;5073908;28;20063;-73
2022/05/07 04:33:51;;;;;;;28.48;16.58;;;9.90;89.80;;;;;;5091039;28;20421;-73
2022/05/07 04:36:18;;;;;;;27.15;16.55;;;9.90;89.80;;;;;;5090691;28;20048;-73
2022/05/07 04:38:46;;;;;;;26.40;16.80;;;9.90;89.90;;;;;;5090645;28;20516;-73
2022/05/07 04:41:21;;;;;;;26.08;16.13;;;9.90;89.90;;;;;;5090697;28;20052;-73
2022/05/07 04:43:50;;;;;;;24.52;16.52;;;9.90;89.90;;;;;;5090608;28;20041;-73
2022/05/07 04:46:18;;;;;;;25.80;17.20;;;10.00;89.90;;;;;;5091718;28;20052;-74
2022/05/07 04:48:54;;;;;;;29.00;17.70;;;10.00;89.90;;;;;;5090982;28;20086;-73
2022/05/07 04:51:23;;;;;;;26.75;17.05;;;10.00;89.80;;;;;;5090446;28;20043;-73
2022/05/07 04:54:20;;;;;;;;;;;10.00;89.80;;;;;;5090461;28;20044;-73
2022/05/07 04:56:51;;;;;;;30.77;18.52;;;10.00;89.80;;;;;;5073420;28;19963;-73
2022/05/07 04:59:19;;;;;;;37.25;18.58;;;10.00;89.70;;;;;;5073463;28;20071;-73
2022/05/07 05:01:57;;;;;;;31.88;18.38;;;10.00;89.60;;;;;;5090743;28;20485;-73
2022/05/07 05:04:25;;;;;;;29.85;18.83;;;10.00;89.60;;;;;;5074592;28;20040;-73
2022/05/07 05:06:53;;;;;;;23.73;17.23;;;10.00;89.60;;;;;;5094637;28;20055;-73
2022/05/07 05:09:31;;;;;;;27.75;17.58;;;10.00;89.60;;;;;;5093999;28;20493;-73
2022/05/07 05:12:11;;;;;;;20.27;14.40;;;10.00;89.60;;;;;;5094885;28;20496;-73
2022/05/07 05:15:02;;;;;;;23.13;13.68;;;10.10;89.60;;;;;;5093777;28;20040;-73
2022/05/07 05:17:48;;;;;;;19.85;13.30;;;10.00;89.50;;;;;;5083675;28;20049;-73
2022/05/07 05:20:18;;;;;;;22.73;14.90;;;10.00;89.40;;;;;;5055163;28;20506;-73
2022/05/07 05:23:09;;;;;;;19.25;15.23;;;10.00;89.30;;;;;;5072832;28;20040;-74
2022/05/07 05:25:43;;;;;;;20.58;15.02;;;10.00;89.30;;;;;;5055984;28;20057;-73
2022/05/07 05:28:17;;;;;;;28.40;15.80;;;10.10;89.30;;;;;;5055499;28;20063;-73
2022/05/07 05:30:51;;;;;;;26.88;15.75;;;10.10;89.30;;;;;;5056983;28;20417;-73
2022/05/07 05:33:22;;;;;;;23.80;16.27;;;10.10;89.30;;;;;;5057505;28;20052;-73
2022/05/07 05:36:04;;;;;;;26.30;15.60;;;10.20;89.30;;;;;;5057268;28;20052;-73
2022/05/07 05:38:35;;;;;;;26.60;14.57;;;10.20;89.20;;;;;;5041032;28;20402;-73
2022/05/07 05:41:03;;;;;;;28.00;15.43;;;10.20;89.20;;;;;;5057329;28;20534;-73
2022/05/07 05:43:33;;;;;;;24.02;15.63;;;10.30;89.20;;;;;;5057216;28;20115;-73
2022/05/07 05:46:00;;;;;;;23.92;15.80;;;10.30;89.10;;;;;;5056884;28;20048;-73
2022/05/07 05:48:29;;;;;;;25.70;16.02;;;10.30;89.00;;;;;;5057452;28;20043;-73
2022/05/07 05:50:58;;;;;;;24.10;16.08;;;10.30;88.90;;;;;;5057510;28;20048;-73
2022/05/07 05:53:33;;;;;;;24.37;16.20;;;10.30;88.90;;;;;;5059766;28;20052;-73
2022/05/07 05:56:02;;;;;;;28.67;16.50;;;10.30;88.90;;;;;;5040792;28;20052;-73
2022/05/07 05:58:37;;;;;;;32.03;16.88;;;10.30;88.90;;;;;;5056998;28;20055;-73
2022/05/07 06:01:06;;;;;;;30.88;18.17;;;10.30;88.90;;;;;;5074559;28;20051;-73
2022/05/07 06:03:41;;;;;;;34.10;18.48;;;10.40;88.90;;;;;;5055896;28;20071;-74
2022/05/07 06:06:11;;;;;;;28.02;18.30;;;10.50;88.90;;;;;;5056753;28;20059;-73
2022/05/07 06:08:39;;;;;;;28.02;17.27;;;10.50;88.80;;;;;;5056576;28;20063;-74
2022/05/07 06:11:07;;;;;;;30.08;16.10;;;10.50;88.80;;;;;;5073921;28;20044;-74
2022/05/07 06:13:34;;;;;;;29.48;17.02;;;10.50;88.80;;;;;;5055661;28;20513;-73
2022/05/07 06:16:02;;;;;;;28.73;17.08;;;10.60;88.70;;;;;;5056043;28;20060;-72
2022/05/07 06:18:30;;;;;;;31.35;15.70;;;10.70;88.70;;;;;;5074298;28;20048;-72
2022/05/07 06:21:03;;;;;;;22.92;14.55;;;10.70;88.60;;;;;;5055886;28;20041;-72
2022/05/07 06:23:34;;;;;;;20.73;13.80;;;10.80;88.50;;;;;;5056695;28;20516;-73
2022/05/07 06:28:47;;;;;;;24.38;13.02;;;10.80;87.90;;;;;;5055342;28;20049;-73
2022/05/07 06:31:17;;;;;;;20.15;12.52;;;10.80;87.60;;;;;;5056253;28;20040;-73
2022/05/07 06:33:45;;;;;;;22.13;12.07;;;10.80;87.20;;;;;;5056485;28;20044;-73
2022/05/07 06:36:14;;;;;;;24.35;13.07;;;10.80;87.20;;;;;;5056222;28;20493;-73
2022/05/07 06:38:42;;;;;;;17.58;11.55;;;10.80;87.00;;;;;;5056069;28;20199;-72
2022/05/07 06:41:13;;;;;;;16.02;10.43;;;10.80;86.90;;;;;;5055706;28;20051;-72
2022/05/07 06:43:49;;;;;;;17.98;11.05;;;10.90;86.80;;;;;;5055870;28;20056;-72
2022/05/07 06:46:32;;;;;;;12.82;10.15;;;10.90;86.70;;;;;;5054461;28;20048;-72
2022/05/07 06:49:06;;;;;;;18.75;10.88;;;11.00;86.60;;;;;;5055662;28;20053;-73
2022/05/07 06:51:49;;;;;;;14.63;10.97;;;11.00;86.40;;;;;;5055286;28;20044;-73
2022/05/07 06:54:17;;;;;;;18.90;11.35;;;11.10;86.50;;;;;;5073066;28;20697;-72
2022/05/07 06:56:45;;;;;;;19.35;11.70;;;11.30;86.40;;;;;;5072379;28;20095;-73
2022/05/07 06:59:12;;;;;;;21.88;11.52;;;11.30;86.20;;;;;;5073015;28;20044;-72
2022/05/07 07:01:40;;;;;;;18.75;12.27;;;11.50;86.00;;;;;;5073580;28;20501;-73
2022/05/07 07:04:08;;;;;;;15.73;11.38;;;11.50;85.80;;;;;;5073395;28;20048;-73
2022/05/07 07:06:36;;;;;;;23.67;12.23;;;11.50;85.80;;;;;;5073627;28;20056;-73
2022/05/07 07:09:04;;;;;;;21.30;12.63;;;11.60;85.70;;;;;;5055452;28;20048;-73
2022/05/07 07:11:32;;;;;;;17.40;11.88;;;11.60;85.70;;;;;;5037059;28;20088;-73
2022/05/07 07:14:02;;;;;;;16.65;10.77;;;11.70;85.70;;;;;;5070084;28;20056;-73
2022/05/07 07:16:30;;;;;;;14.45;10.15;;;11.80;85.50;;;;;;5071407;28;20067;-73
2022/05/07 07:18:58;;;;;;;19.80;11.18;;;11.80;85.30;;;;;;5071292;28;20076;-73
2022/05/07 07:21:26;;;;;;;21.90;12.27;;;11.90;85.10;;;;;;5071326;28;20043;-73
2022/05/07 07:23:53;;;;;;;19.75;10.70;;;11.90;85.00;;;;;;5070869;28;20510;-73
2022/05/07 07:26:23;;;;;;;17.40;9.90;;;12.00;84.90;;;;;;5071865;28;20497;-73
2022/05/07 07:28:51;;;;;;;16.45;9.75;;;12.20;84.90;;;;;;5072232;28;20040;-73
2022/05/07 07:31:19;;;;;;;15.63;8.93;;;12.30;84.20;;;;;;5072654;28;20059;-74
2022/05/07 07:33:47;;;;;;;21.55;9.45;;;12.40;84.00;;;;;;5073017;28;20052;-74
2022/05/07 07:36:15;;;;;;;14.13;8.93;;;12.50;83.80;;;;;;5054975;28;20041;-73
2022/05/07 07:38:42;;;;;;;18.05;9.30;;;12.50;83.70;;;;;;5072452;28;20049;-73
2022/05/07 07:41:10;;;;;;;15.20;9.05;;;12.50;83.40;;;;;;5071821;28;20072;-72
2022/05/07 07:43:39;;;;;;;12.13;8.43;;;12.50;83.10;;;;;;5054949;28;20110;-73
2022/05/07 07:48:53;;;;;;;15.38;8.93;;;12.40;83.10;;;;;;5076204;28;20055;-73
2022/05/07 07:51:21;;;;;;;13.38;9.18;;;12.40;82.50;;;;;;5055936;28;20044;-73
2022/05/07 07:53:48;;;;;;;15.70;9.35;;;12.30;82.60;;;;;;5054491;28;20060;-73
2022/05/07 07:56:16;;;;;;;15.02;9.15;;;12.30;82.80;;;;;;5072308;28;20055;-73
2022/05/07 07:58:44;;;;;;;10.50;8.40;;;12.40;82.70;;;;;;5071634;28;20060;-73
2022/05/07 08:01:11;;;;;;;13.93;8.18;;;12.40;82.20;;;;;;5072464;28;20056;-73
2022/05/07 08:03:39;;;;;;;12.73;8.43;;;12.40;82.10;;;;;;5072705;28;20044;-73
2022/05/07 08:06:06;;;;;;;11.30;8.93;;;12.40;82.30;;;;;;5071530;28;20044;-73
2022/05/07 08:14:13;;;;;;;12.65;8.70;;;12.80;82.20;;;;;;5071871;28;20051;-73
2022/05/07 08:16:42;;;;;;;16.90;8.77;;;12.90;81.80;;;;;;5071857;28;20045;-72
2022/05/07 08:19:12;;;;;;;11.82;8.25;;;13.10;81.30;;;;;;5073478;28;20044;-73
2022/05/07 08:21:40;;;;;;;14.82;7.28;;;13.30;80.90;;;;;;5081944;28;20048;-73
2022/05/07 08:24:07;;;;;;;14.00;7.45;;;13.40;80.40;;;;;;5085724;28;20056;-73
2022/05/07 08:26:35;;;;;;;9.85;6.13;;;13.50;79.90;;;;;;5079638;28;20051;-73
2022/05/07 08:29:02;;;;;;;12.55;5.15;;;13.60;79.60;;;;;;5079629;28;20044;-73
2022/05/07 08:31:30;;;;;;;9.52;4.07;;;13.60;78.90;;;;;;5079162;28;20421;-73
2022/05/07 08:33:59;;;;;;;7.68;3.30;;;13.60;78.70;;;;;;5079786;28;20043;-74
2022/05/07 08:36:26;;;;;;;9.98;3.45;;;13.60;78.60;;;;;;5079701;28;20044;-74
2022/05/07 08:38:54;;;;;;;8.20;3.30;;;13.80;78.20;;;;;;5063767;28;20505;-74
2022/05/07 08:41:22;;;;;;;5.75;2.90;;;13.90;77.60;;;;;;5061586;28;20047;-74
2022/05/07 08:43:50;;;;;;;7.53;2.95;;;13.90;76.70;;;;;;5062940;28;20409;-74
2022/05/07 08:46:19;;;;;;;5.22;2.90;;;13.80;76.20;;;;;;5079434;28;20048;-72
2022/05/07 08:48:51;;;;;;;4.57;2.95;;;13.80;76.50;;;;;;5063853;28;20059;-73
2022/05/07 08:51:22;;;;;;;6.22;2.75;;;13.90;76.50;;;;;;5080447;28;20516;-73
2022/05/07 08:53:53;;;;;;;5.55;2.35;;;14.00;76.60;;;;;;5074114;28;20060;-73
2022/05/07 08:56:23;;;;;;;2.65;2.10;;;14.20;75.90;;;;;;5060623;28;20044;-74
2022/05/07 08:58:52;;;;;;;4.05;2.40;;;14.20;75.50;;;;;;5076736;28;20049;-73
2022/05/07 09:01:21;;;;;;;6.10;2.45;;;14.30;74.20;;;;;;5077520;28;20323;-73
2022/05/07 09:03:50;;;;;;;5.63;3.10;;;14.30;73.60;;;;;;5081733;28;20492;-72
2022/05/07 09:06:26;;;;;;;9.27;3.10;;;14.30;73.50;;;;;;5063199;28;20039;-72
2022/05/07 09:08:55;;;;;;;7.78;2.83;;;14.20;74.10;;;;;;5082760;28;20040;-72
2022/05/07 09:11:23;;;;;;;7.40;3.00;;;14.20;73.70;;;;;;5074005;28;20055;-72
2022/05/07 09:14:04;;;;;;;7.28;2.70;;;14.10;73.10;;;;;;5091610;28;20044;-72
2022/05/07 09:16:40;;;;;;;6.30;2.80;;;14.10;73.80;;;;;;5074814;28;20489;-73
2022/05/07 09:19:28;;;;;;;7.63;2.60;;;14.20;73.90;;;;;;5093483;28;20067;-72
2022/05/07 09:22:06;;;;;;;5.57;3.15;;;14.40;73.00;;;;;;5093030;28;20048;-72
2022/05/07 09:24:34;;;;;;;9.52;3.67;;;14.40;73.00;;;;;;5091819;28;20055;-72
2022/05/07 09:27:03;;;;;;;4.70;3.13;;;14.30;72.60;;;;;;5091107;28;20056;-72
2022/05/07 09:29:34;;;;;;;4.28;2.40;;;14.20;72.70;;;;;;5091160;28;20064;-74
2022/05/07 09:32:09;;;;;;;6.72;2.53;;;14.00;72.50;;;;;;5091739;28;20040;-71
2022/05/07 09:37:38;;;;;;;6.72;2.53;;;14.10;73.00;;;;;;5075596;28;20045;-73
2022/05/07 09:40:11;;;;;;;4.35;2.20;;;14.20;72.80;;;;;;5053432;28;20510;-72
2022/05/07 09:42:39;;;;;;;5.57;2.45;;;14.40;72.50;;;;;;5071294;28;20060;-71
2022/05/07 09:45:07;;;;;;;6.88;3.00;;;14.60;71.90;;;;;;5055944;28;20045;-72
2022/05/07 09:47:36;;;;;;;4.05;2.00;;;14.60;71.70;;;;;;5072622;28;20052;-73
2022/05/07 09:50:20;;;;;;;4.63;1.90;;;14.60;70.80;;;;;;5070694;28;20041;-73
2022/05/07 09:58:23;;;;;;;5.10;2.05;;;14.60;69.80;;;;;;5074663;28;20058;-72
2022/05/07 10:01:21;;;;;;;6.60;2.65;;;14.80;69.80;;;;;;5074120;28;20053;-72
2022/05/07 10:03:57;;;;;;;4.50;2.40;;;15.10;69.50;;;;;;5074659;28;20059;-72
2022/05/07 10:07:01;;;;;;;4.82;2.30;;;15.30;68.70;;;;;;5074122;28;20052;-72
2022/05/07 10:09:48;;;;;;;4.50;2.20;;;15.50;68.50;;;;;;5074021;28;20059;-72
2022/05/07 10:12:19;;;;;;;6.45;1.88;;;15.60;67.70;;;;;;5056740;28;20505;-72
2022/05/07 10:14:47;;;;;;;5.35;1.55;;;15.60;67.60;;;;;;5074793;28;20052;-72
2022/05/07 10:17:19;;;;;;;5.00;1.92;;;15.70;66.90;;;;;;5075711;28;20072;-72
2022/05/07 10:20:02;;;;;;;5.55;2.45;;;15.80;65.40;;;;;;5074096;28;20044;-73
2022/05/07 10:22:30;;;;;;;4.95;2.22;;;15.80;65.90;;;;;;5056211;28;20048;-72
2022/05/07 10:25:11;;;;;;;4.43;2.45;;;16.00;65.80;;;;;;5074180;28;20226;-72
2022/05/07 10:27:41;;;;;;;5.22;2.20;;;16.20;65.50;;;;;;5074378;28;20044;-72
2022/05/07 10:30:21;;;;;;;5.53;1.90;;;16.20;65.50;;;;;;5056119;28;20041;-73
2022/05/07 10:33:01;;;;;;;5.38;2.25;;;16.30;64.80;;;;;;5073766;28;20059;-72
2022/05/07 10:35:52;;;;;;;5.97;2.28;;;16.30;65.00;;;;;;5074163;28;20051;-72
2022/05/07 10:38:23;;;;;;;5.85;2.03;;;16.20;64.80;;;;;;5074389;28;20045;-72
2022/05/07 10:41:19;;;;;;;5.43;2.50;;;16.10;64.40;;;;;;5039596;28;20053;-73
2022/05/07 10:43:56;;;;;;;5.55;2.10;;;16.10;63.80;;;;;;5055998;28;20227;-72
2022/05/07 10:46:24;;;;;;;8.98;1.90;;;16.00;63.50;;;;;;5073592;28;20056;-72
2022/05/07 10:48:57;;;;;;;3.58;1.80;;;16.10;62.60;;;;;;5073639;28;20048;-73
2022/05/07 10:51:31;;;;;;;3.72;1.80;;;16.10;62.70;;;;;;5056081;28;20037;-72
2022/05/07 10:54:00;;;;;;;3.95;1.70;;;16.20;62.60;;;;;;5072548;28;20052;-72
2022/05/07 10:56:33;;;;;;;3.38;1.55;;;16.30;62.30;;;;;;5073947;28;20041;-73
2022/05/07 10:59:02;;;;;;;5.78;1.90;;;16.40;62.00;;;;;;5073696;28;20414;-72
2022/05/07 11:01:31;;;;;;;2.80;1.42;;;16.70;61.90;;;;;;5073502;28;20084;-72
2022/05/07 11:04:04;;;;;;;2.20;1.50;;;17.10;61.30;;;;;;5073027;28;20041;-72
2022/05/07 11:06:49;;;;;;;5.97;2.58;;;17.50;60.70;;;;;;5073832;28;20045;-72
2022/05/07 11:09:18;;;;;;;8.80;2.13;;;17.80;59.40;;;;;;5054959;28;20422;-71
2022/05/07 11:11:49;;;;;;;8.50;2.10;;;18.10;58.10;;;;;;5072994;28;20068;-72
2022/05/07 11:14:28;;;;;;;6.35;2.00;;;18.30;56.70;;;;;;5073787;28;20052;-73
2022/05/07 11:16:58;;;;;;;5.47;2.38;;;18.40;56.20;;;;;;5056259;28;20052;-71
2022/05/07 11:19:33;;;;;;;4.93;2.50;;;18.60;56.10;;;;;;5077703;28;20052;-72
2022/05/07 11:22:08;;;;;;;4.00;1.90;;;18.60;56.10;;;;;;5064214;28;20482;-73
2022/05/07 11:24:36;;;;;;;3.65;1.95;;;18.70;56.70;;;;;;5080442;28;20045;-72
2022/05/07 11:27:06;;;;;;;5.03;2.00;;;18.70;55.70;;;;;;5063825;28;20036;-72
2022/05/07 11:29:34;;;;;;;6.70;1.92;;;18.70;55.60;;;;;;5083025;28;20056;-72
2022/05/07 11:32:07;;;;;;;6.82;2.47;;;18.70;55.10;;;;;;5080244;28;20048;-72
2022/05/07 11:34:40;;;;;;;5.80;1.80;;;18.80;55.10;;;;;;5082332;28;20055;-73
2022/05/07 11:37:11;;;;;;;3.53;1.45;;;18.80;53.70;;;;;;5079327;28;20040;-72
2022/05/07 11:39:59;;;;;;;3.72;1.70;;;18.70;53.40;;;;;;5081990;28;20044;-72
2022/05/07 11:42:49;;;;;;;4.47;1.60;;;18.70;53.00;;;;;;5082284;28;20049;-72
2022/05/07 11:45:26;;;;;;;3.30;1.08;;;18.70;52.50;;;;;;5079437;28;20037;-72
2022/05/07 11:48:25;;;;;;;2.88;1.33;;;18.90;52.20;;;;;;5082160;28;20047;-72
2022/05/07 11:51:00;;;;;;;4.47;1.20;;;19.10;50.90;;;;;;5080978;28;20044;-72
2022/05/07 11:53:30;;;;;;;4.65;1.48;;;19.30;50.10;;;;;;5080104;28;20051;-73
2022/05/07 11:56:06;;;;;;;3.58;1.60;;;19.50;50.10;;;;;;5081581;28;20048;-72
2022/05/07 11:58:42;;;;;;;3.67;1.50;;;19.40;50.30;;;;;;5081147;28;20504;-72
2022/05/07 12:01:24;;;;;;;3.28;1.30;;;19.10;51.00;;;;;;5062440;28;20049;-72
2022/05/07 12:03:52;;;;;;;3.08;1.50;;;18.90;51.60;;;;;;5064462;28;20048;-72
2022/05/07 12:06:28;;;;;;;4.03;1.67;;;18.70;51.70;;;;;;5081074;28;20047;-73
2022/05/07 12:08:57;;;;;;;4.00;1.40;;;18.70;52.10;;;;;;5081461;28;20048;-72
2022/05/07 12:11:24;;;;;;;4.30;1.40;;;18.70;51.70;;;;;;5083261;28;20511;-73
2022/05/07 12:13:52;;;;;;;3.53;1.35;;;18.70;51.30;;;;;;5081828;28;20055;-72
2022/05/07 12:19:05;;;;;;;6.40;1.40;;;18.90;51.20;;;;;;5077597;28;20052;-73
2022/05/07 12:29:52;;;;;;;2.92;1.20;;;21.00;46.40;;;;;;5078564;28;20040;-72
2022/05/07 12:32:21;;;;;;;3.13;1.25;;;21.30;45.50;;;;;;5072287;28;20044;-73
2022/05/07 12:34:49;;;;;;;4.47;1.50;;;21.40;43.80;;;;;;5072161;28;20051;-72
2022/05/07 12:37:17;;;;;;;4.45;1.30;;;21.50;44.10;;;;;;5072231;28;20551;-73
2022/05/07 12:39:44;;;;;;;3.97;1.67;;;21.80;44.30;;;;;;5071946;28;20486;-73
2022/05/07 12:42:12;;;;;;;4.00;1.50;;;22.30;45.20;;;;;;5072092;28;20071;-72
2022/05/07 12:44:44;;;;;;;4.55;1.40;;;23.00;44.30;;;;;;5071109;28;20075;-71
2022/05/07 12:47:11;;;;;;;2.50;1.25;;;23.60;42.20;;;;;;5072326;28;20044;-73
2022/05/07 12:49:39;;;;;;;2.03;1.17;;;23.80;40.80;;;;;;5071868;28;20052;-73
2022/05/07 12:52:07;;;;;;;4.20;1.35;;;23.30;40.80;;;;;;5072005;28;20055;-73
2022/05/07 12:54:36;;;;;;;4.40;1.40;;;22.70;41.90;;;;;;5072208;28;20068;-73
2022/05/07 12:57:06;;;;;;;5.43;1.20;;;22.00;42.60;;;;;;5071690;28;20044;-73
2022/05/07 12:59:36;;;;;;;4.63;1.30;;;21.50;43.70;;;;;;5071953;28;20406;-78
2022/05/07 13:02:08;;;;;;;3.58;1.13;;;21.00;44.30;;;;;;5071893;28;20059;-72
2022/05/07 13:04:36;;;;;;;4.25;1.48;;;20.50;44.90;;;;;;5071871;28;20041;-72
2022/05/07 13:07:04;;;;;;;3.78;1.30;;;20.20;45.80;;;;;;5071905;28;20048;-73
2022/05/07 13:09:32;;;;;;;3.25;1.20;;;19.90;46.70;;;;;;5071988;28;20052;-74
2022/05/07 13:12:19;;;;;;;3.20;1.45;;;19.70;47.50;;;;;;5071832;28;20040;-73
2022/05/07 13:14:55;;;;;;;3.67;1.33;;;19.50;47.60;;;;;;5071777;28;20048;-72
2022/05/07 13:17:23;;;;;;;2.95;1.35;;;20.00;47.60;;;;;;5055867;28;20045;-72
2022/05/07 13:19:51;;;;;;;3.15;1.45;;;21.10;46.40;;;;;;5090831;28;20055;-74
2022/05/07 13:22:19;;;;;;;3.28;1.48;;;22.30;44.10;;;;;;5092054;28;20044;-73
2022/05/07 13:24:46;;;;;;;3.20;1.17;;;23.30;43.00;;;;;;5092334;28;20040;-73
2022/05/07 13:27:14;;;;;;;2.78;1.45;;;24.20;42.20;;;;;;5095494;28;20036;-73
2022/05/07 13:29:42;;;;;;;4.10;1.40;;;25.20;41.10;;;;;;5095812;28;20044;-73
2022/05/07 13:32:09;;;;;;;4.00;1.42;;;26.00;38.60;;;;;;5091828;28;20040;-73
2022/05/07 13:34:37;;;;;;;3.95;1.40;;;26.40;36.20;;;;;;5094584;28;20040;-73